createdAt,value
2022-09-15T00:02:21.266Z,5.70
2022-09-15T00:04:47.843Z,4.82
2022-09-15T00:07:14.527Z,4.25
2022-09-15T00:09:41.099Z,2.92
2022-09-15T00:12:07.849Z,3.65
2022-09-15T00:14:34.515Z,4.75
2022-09-15T00:17:01.303Z,3.80
2022-09-15T00:19:27.856Z,8.65
2022-09-15T00:21:54.395Z,3.67
2022-09-15T00:24:20.900Z,3.85
2022-09-15T00:26:47.492Z,3.15
2022-09-15T00:29:14.040Z,4.32
2022-09-15T00:31:40.554Z,3.55
2022-09-15T00:34:07.311Z,5.10
2022-09-15T00:36:34.449Z,3.67
2022-09-15T00:39:01.273Z,5.20
2022-09-15T00:41:28.211Z,3.70
2022-09-15T00:44:00.732Z,6.82
2022-09-15T00:46:37.505Z,3.72
2022-09-15T00:49:15.041Z,3.63
2022-09-15T00:51:57.003Z,6.00
2022-09-15T00:54:30.552Z,4.70
2022-09-15T00:57:00.185Z,4.80
2022-09-15T00:59:30.004Z,4.05
2022-09-15T01:02:05.424Z,2.53
2022-09-15T01:04:32.179Z,2.97
2022-09-15T01:07:04.756Z,6.38
2022-09-15T01:09:41.921Z,2.80
2022-09-15T01:12:08.563Z,4.72
2022-09-15T01:14:35.141Z,7.95
2022-09-15T01:17:15.802Z,4.95
2022-09-15T01:20:21.145Z,6.85
2022-09-15T01:23:25.282Z,6.93
2022-09-15T01:26:29.677Z,5.55
2022-09-15T01:29:23.522Z,4.00
2022-09-15T01:32:27.311Z,5.88
2022-09-15T01:35:17.171Z,5.50
2022-09-15T01:37:52.716Z,6.55
2022-09-15T01:40:22.931Z,4.07
2022-09-15T01:42:51.015Z,3.55
2022-09-15T01:45:30.984Z,4.68
2022-09-15T01:47:59.520Z,6.43
2022-09-15T01:50:40.945Z,4.93
2022-09-15T01:53:12.993Z,7.05
2022-09-15T01:55:44.408Z,5.53
2022-09-15T01:58:11.167Z,6.90
2022-09-15T02:00:43.741Z,5.85
2022-09-15T02:03:26.020Z,6.63
2022-09-15T02:06:01.964Z,7.13
2022-09-15T02:08:38.102Z,6.50
2022-09-15T02:11:16.775Z,6.78
2022-09-15T02:14:11.231Z,7.20
2022-09-15T02:16:40.798Z,7.85
2022-09-15T02:19:31.185Z,8.63
2022-09-15T02:22:07.584Z,9.05
2022-09-15T02:24:42.112Z,8.30
2022-09-15T02:27:13.949Z,8.23
2022-09-15T02:29:43.503Z,8.60
2022-09-15T02:32:12.088Z,10.02
2022-09-15T02:34:42.750Z,6.65
2022-09-15T02:37:11.451Z,13.77
2022-09-15T02:39:43.355Z,8.98
2022-09-15T02:42:10.551Z,7.63
2022-09-15T02:44:37.517Z,8.25
2022-09-15T02:47:04.443Z,8.13
2022-09-15T02:49:31.089Z,8.55
2022-09-15T02:51:57.650Z,5.90
2022-09-15T02:54:24.257Z,6.47
2022-09-15T02:56:50.886Z,7.22
2022-09-15T02:59:17.484Z,5.03
2022-09-15T03:01:44.978Z,7.72
2022-09-15T03:04:11.667Z,8.05
2022-09-15T03:06:38.454Z,6.72
2022-09-15T03:09:08.424Z,6.75
2022-09-15T03:11:35.960Z,6.25
2022-09-15T03:14:05.871Z,8.48
2022-09-15T03:16:34.681Z,5.43
2022-09-15T03:19:01.965Z,5.35
2022-09-15T03:21:29.710Z,9.27
2022-09-15T03:23:57.482Z,8.85
2022-09-15T03:26:24.389Z,6.82
2022-09-15T03:28:51.159Z,8.30
2022-09-15T03:31:17.841Z,7.45
2022-09-15T03:33:44.391Z,6.97
2022-09-15T03:36:11.067Z,6.10
2022-09-15T03:38:37.788Z,8.73
2022-09-15T03:41:10.522Z,10.00
2022-09-15T03:43:37.985Z,6.07
2022-09-15T03:46:06.848Z,7.85
2022-09-15T03:48:35.685Z,5.95
2022-09-15T03:51:04.618Z,7.97
2022-09-15T03:53:36.074Z,5.65
2022-09-15T03:56:09.015Z,6.55
2022-09-15T03:58:35.692Z,5.13
2022-09-15T04:01:02.444Z,6.60
2022-09-15T04:03:29.228Z,7.93
2022-09-15T04:05:55.773Z,5.57
2022-09-15T04:08:22.300Z,4.93
2022-09-15T04:10:48.852Z,9.25
2022-09-15T04:13:15.393Z,4.40
2022-09-15T04:15:42.009Z,8.60
2022-09-15T04:18:09.071Z,7.53
2022-09-15T04:20:39.670Z,5.35
2022-09-15T04:23:07.392Z,5.80
2022-09-15T04:25:33.979Z,7.15
2022-09-15T04:28:00.697Z,7.05
2022-09-15T04:30:27.329Z,5.50
2022-09-15T04:32:53.893Z,8.77
2022-09-15T04:35:21.861Z,6.60
2022-09-15T04:37:48.454Z,6.97
2022-09-15T04:40:15.258Z,8.07
2022-09-15T04:42:41.884Z,6.05
2022-09-15T04:45:08.976Z,9.07
2022-09-15T04:47:35.622Z,7.07
2022-09-15T04:50:02.219Z,5.82
2022-09-15T04:52:28.751Z,8.35
2022-09-15T04:54:55.369Z,7.35
2022-09-15T04:57:21.957Z,4.93
2022-09-15T04:59:48.488Z,6.63
2022-09-15T05:02:15.093Z,7.43
2022-09-15T05:04:41.735Z,6.60
2022-09-15T05:07:08.276Z,7.63
2022-09-15T05:09:34.841Z,6.28
2022-09-15T05:12:01.697Z,5.40
2022-09-15T05:14:28.245Z,5.93
2022-09-15T05:16:54.806Z,4.75
2022-09-15T05:19:21.392Z,5.85
2022-09-15T05:21:47.916Z,8.00
2022-09-15T05:24:14.432Z,6.32
2022-09-15T05:26:41.687Z,11.15
2022-09-15T05:29:08.270Z,6.10
2022-09-15T05:31:35.066Z,6.32
2022-09-15T05:34:05.386Z,5.78
2022-09-15T05:36:32.714Z,7.10
2022-09-15T05:39:00.177Z,4.95
2022-09-15T05:41:27.767Z,5.75
2022-09-15T05:43:59.352Z,5.57
2022-09-15T05:46:26.866Z,7.38
2022-09-15T05:48:55.140Z,4.30
2022-09-15T05:51:22.041Z,4.90
2022-09-15T05:53:48.817Z,3.85
2022-09-15T05:56:17.285Z,5.80
2022-09-15T05:58:45.846Z,3.97
2022-09-15T06:01:18.941Z,4.47
2022-09-15T06:03:46.549Z,4.97
2022-09-15T06:06:13.313Z,2.50
2022-09-15T06:08:44.484Z,7.38
2022-09-15T06:11:15.529Z,2.33
2022-09-15T06:13:42.608Z,5.93
2022-09-15T06:16:11.797Z,4.22
2022-09-15T06:18:39.834Z,3.72
2022-09-15T06:21:15.329Z,2.25
2022-09-15T06:23:47.153Z,4.05
2022-09-15T06:26:18.916Z,7.50
2022-09-15T06:28:50.660Z,4.63
2022-09-15T06:31:18.264Z,6.32
2022-09-15T06:33:47.199Z,3.38
2022-09-15T06:36:15.564Z,5.28
2022-09-15T06:38:42.825Z,3.65
2022-09-15T06:41:09.515Z,3.55
2022-09-15T06:43:36.647Z,6.68
2022-09-15T06:46:15.103Z,5.80
2022-09-15T06:48:45.173Z,3.65
2022-09-15T06:51:16.908Z,9.10
2022-09-15T06:53:43.999Z,3.72
2022-09-15T06:56:13.229Z,4.60
2022-09-15T06:58:41.705Z,2.60
2022-09-15T07:01:10.844Z,5.03
2022-09-15T07:03:39.367Z,2.65
2022-09-15T07:06:07.121Z,2.40
2022-09-15T07:08:34.232Z,3.25
2022-09-15T07:11:01.236Z,5.13
2022-09-15T07:13:27.801Z,4.40
2022-09-15T07:15:57.392Z,3.92
2022-09-15T07:18:24.822Z,4.47
2022-09-15T07:20:52.342Z,3.20
2022-09-15T07:23:19.110Z,4.95
2022-09-15T07:25:45.735Z,4.50
2022-09-15T07:28:12.788Z,3.25
2022-09-15T07:30:39.778Z,5.25
2022-09-15T07:33:07.873Z,5.40
2022-09-15T07:35:34.691Z,3.05
2022-09-15T07:38:01.434Z,2.03
2022-09-15T07:40:28.941Z,3.10
2022-09-15T07:42:56.012Z,2.10
2022-09-15T07:45:22.748Z,5.55
2022-09-15T07:47:49.516Z,1.65
2022-09-15T07:50:16.574Z,1.15
2022-09-15T07:52:43.233Z,3.22
2022-09-15T07:55:13.081Z,1.88
2022-09-15T07:57:39.795Z,3.45
2022-09-15T08:00:07.297Z,1.85
2022-09-15T08:02:34.268Z,3.15
2022-09-15T08:05:00.967Z,3.92
2022-09-15T08:07:27.609Z,2.38
2022-09-15T08:09:54.185Z,2.83
2022-09-15T08:12:20.769Z,1.80
2022-09-15T08:14:47.411Z,2.55
2022-09-15T08:17:13.982Z,2.22
2022-09-15T08:19:40.848Z,2.60
2022-09-15T08:22:07.657Z,4.45
2022-09-15T08:24:34.917Z,1.77
2022-09-15T08:27:05.003Z,4.07
2022-09-15T08:29:31.945Z,3.70
2022-09-15T08:31:58.722Z,1.65
2022-09-15T08:34:28.386Z,3.78
2022-09-15T08:36:55.059Z,2.50
2022-09-15T08:39:21.836Z,2.85
2022-09-15T08:41:50.932Z,2.67
2022-09-15T08:44:52.871Z,2.35
2022-09-15T08:50:49.880Z,3.08
2022-09-15T08:53:44.077Z,2.63
2022-09-15T08:56:19.402Z,3.17
2022-09-15T08:58:46.535Z,2.25
2022-09-15T09:01:18.990Z,3.30
2022-09-15T09:04:31.757Z,2.47
2022-09-15T09:07:26.113Z,1.90
2022-09-15T09:10:14.050Z,2.35
2022-09-15T09:12:52.668Z,0.90
2022-09-15T09:15:24.231Z,2.00
2022-09-15T09:18:02.850Z,2.33
2022-09-15T09:20:37.837Z,1.20
2022-09-15T09:23:08.848Z,4.30
2022-09-15T09:25:36.753Z,2.70
2022-09-15T09:28:05.891Z,1.88
2022-09-15T09:30:34.846Z,2.17
2022-09-15T09:33:29.887Z,2.92
2022-09-15T09:35:59.727Z,4.35
2022-09-15T09:38:36.677Z,2.25
2022-09-15T09:41:10.854Z,1.63
2022-09-15T09:43:37.587Z,2.45
2022-09-15T09:46:16.381Z,3.00
2022-09-15T09:49:00.850Z,2.83
2022-09-15T09:51:40.175Z,2.47
2022-09-15T09:54:12.589Z,2.67
2022-09-15T09:56:40.335Z,2.08
2022-09-15T09:59:34.965Z,2.42
2022-09-15T10:02:22.487Z,4.90
2022-09-15T10:05:12.359Z,1.98
2022-09-15T10:07:45.530Z,1.40
2022-09-15T10:10:28.640Z,3.38
2022-09-15T10:12:56.532Z,1.95
2022-09-15T10:15:34.649Z,1.60
2022-09-15T10:18:01.785Z,1.35
2022-09-15T10:20:35.664Z,3.25
2022-09-15T10:23:24.661Z,2.13
2022-09-15T10:25:59.410Z,2.35
2022-09-15T10:28:27.470Z,2.47
2022-09-15T10:31:25.996Z,0.80
2022-09-15T10:33:52.716Z,3.38
2022-09-15T10:36:30.677Z,2.30
2022-09-15T10:39:21.388Z,2.58
2022-09-15T10:42:14.379Z,1.90
2022-09-15T10:45:06.219Z,3.63
2022-09-15T10:48:07.207Z,4.78
2022-09-15T10:51:03.855Z,3.60
2022-09-15T10:54:11.648Z,2.63
2022-09-15T10:56:46.119Z,4.65
2022-09-15T10:59:32.133Z,2.17
2022-09-15T11:01:59.029Z,3.92
2022-09-15T11:04:41.286Z,3.63
2022-09-15T11:07:32.041Z,3.25
2022-09-15T11:10:29.415Z,1.90
2022-09-15T11:13:29.198Z,3.80
2022-09-15T11:16:05.498Z,1.75
2022-09-15T11:18:50.755Z,2.50
2022-09-15T11:21:27.590Z,2.85
2022-09-15T11:24:21.756Z,2.00
2022-09-15T11:27:05.478Z,1.75
2022-09-15T11:29:47.201Z,1.40
2022-09-15T11:32:20.245Z,1.95
2022-09-15T11:34:56.886Z,1.60
2022-09-15T11:37:40.709Z,2.60
2022-09-15T11:40:23.417Z,0.95
2022-09-15T11:42:59.438Z,2.00
2022-09-15T11:45:29.124Z,1.20
2022-09-15T11:48:22.859Z,1.42
2022-09-15T11:50:54.479Z,1.45
2022-09-15T11:53:50.934Z,2.05
2022-09-15T11:56:33.026Z,3.03
2022-09-15T11:59:29.762Z,2.83
2022-09-15T12:02:26.626Z,2.13
2022-09-15T12:05:11.459Z,1.60
2022-09-15T12:07:45.788Z,1.73
2022-09-15T12:10:21.924Z,1.20
2022-09-15T12:12:51.488Z,2.17
2022-09-15T12:15:27.039Z,3.47
2022-09-15T12:17:56.551Z,2.53
2022-09-15T12:20:33.742Z,3.95
2022-09-15T12:23:13.005Z,1.70
2022-09-15T12:26:05.104Z,1.30
2022-09-15T12:28:39.598Z,1.38
2022-09-15T12:31:29.278Z,1.17
2022-09-15T12:34:03.701Z,0.88
2022-09-15T12:36:39.670Z,3.35
2022-09-15T12:39:36.382Z,2.70
2022-09-15T12:42:23.578Z,1.60
2022-09-15T12:45:01.906Z,3.10
2022-09-15T12:47:49.081Z,3.65
2022-09-15T12:50:15.879Z,2.75
2022-09-15T12:52:52.755Z,2.83
2022-09-15T12:55:25.191Z,2.60
2022-09-15T12:57:55.627Z,5.43
2022-09-15T13:00:32.739Z,2.30
2022-09-15T13:03:00.625Z,0.73
2022-09-15T13:05:42.787Z,1.95
2022-09-15T13:08:34.672Z,1.83
2022-09-15T13:11:10.644Z,2.17
2022-09-15T13:14:06.870Z,1.85
2022-09-15T13:16:48.711Z,1.25
2022-09-15T13:19:33.374Z,1.48
2022-09-15T13:22:14.988Z,1.15
2022-09-15T13:25:02.081Z,1.42
2022-09-15T13:27:42.783Z,0.98
2022-09-15T13:30:22.039Z,1.58
2022-09-15T13:33:04.196Z,0.57
2022-09-15T13:35:46.456Z,2.35
2022-09-15T13:38:26.471Z,1.17
2022-09-15T13:41:10.824Z,2.22
2022-09-15T13:43:46.237Z,2.72
2022-09-15T13:46:18.932Z,2.53
2022-09-15T13:49:00.086Z,1.60
2022-09-15T13:51:32.940Z,2.90
2022-09-15T13:54:02.338Z,1.33
2022-09-15T13:56:32.582Z,1.40
2022-09-15T13:59:14.239Z,1.65
2022-09-15T14:01:42.935Z,2.65
2022-09-15T14:04:16.861Z,3.28
2022-09-15T14:06:47.643Z,4.20
2022-09-15T14:09:24.650Z,1.48
2022-09-15T14:11:56.026Z,3.83
2022-09-15T14:14:28.405Z,4.03
2022-09-15T14:16:56.963Z,1.83
2022-09-15T14:19:36.311Z,4.60
2022-09-15T14:22:18.553Z,2.28
2022-09-15T14:24:45.730Z,2.95
2022-09-15T14:27:17.347Z,2.63
2022-09-15T14:29:44.527Z,1.42
2022-09-15T14:32:15.231Z,3.75
2022-09-15T14:34:43.457Z,1.40
2022-09-15T14:37:22.318Z,1.48
2022-09-15T14:39:56.437Z,2.17
2022-09-15T14:42:30.742Z,3.17
2022-09-15T14:48:01.635Z,2.55
2022-09-15T14:50:33.268Z,2.88
2022-09-15T14:53:04.130Z,2.00
2022-09-15T14:55:47.049Z,1.98
2022-09-15T14:58:21.777Z,2.22
2022-09-15T15:01:07.936Z,3.22
2022-09-15T15:03:49.717Z,3.70
2022-09-15T15:06:28.768Z,2.15
2022-09-15T15:09:23.590Z,2.53
2022-09-15T15:11:53.931Z,1.90
2022-09-15T15:16:58.295Z,2.10
2022-09-15T15:19:40.165Z,1.83
2022-09-15T15:22:13.709Z,3.00
2022-09-15T15:24:46.055Z,4.20
2022-09-15T15:27:33.965Z,1.92
2022-09-15T15:30:24.187Z,3.78
2022-09-15T15:32:51.979Z,1.27
2022-09-15T15:35:19.996Z,1.85
2022-09-15T15:37:47.312Z,2.63
2022-09-15T15:40:19.490Z,2.75
2022-09-15T15:42:59.976Z,4.82
2022-09-15T15:45:32.678Z,3.22
2022-09-15T15:48:01.676Z,3.28
2022-09-15T15:50:32.084Z,2.33
2022-09-15T15:53:00.642Z,2.42
2022-09-15T15:55:42.188Z,4.53
2022-09-15T15:58:10.965Z,1.92
2022-09-15T16:00:47.011Z,6.60
2022-09-15T16:03:15.431Z,5.15
2022-09-15T16:05:45.703Z,2.83
2022-09-15T16:08:26.833Z,5.00
2022-09-15T16:10:55.230Z,3.45
2022-09-15T16:13:23.370Z,3.58
2022-09-15T16:16:01.777Z,3.65
2022-09-15T16:18:30.220Z,3.92
2022-09-15T16:20:56.975Z,3.00
2022-09-15T16:23:24.372Z,3.08
2022-09-15T16:25:55.891Z,2.78
2022-09-15T16:28:23.637Z,5.57
2022-09-15T16:30:50.331Z,3.95
2022-09-15T16:33:18.746Z,2.92
2022-09-15T16:36:03.788Z,3.65
2022-09-15T16:38:30.629Z,2.75
2022-09-15T16:40:57.823Z,4.93
2022-09-15T16:43:24.530Z,6.15
2022-09-15T16:45:51.818Z,3.95
2022-09-15T16:48:18.900Z,3.33
2022-09-15T16:51:09.524Z,3.22
2022-09-15T16:53:34.891Z,2.42
2022-09-15T16:56:01.712Z,2.28
2022-09-15T16:58:28.455Z,4.68
2022-09-15T17:00:56.467Z,3.80
2022-09-15T17:03:26.129Z,4.20
2022-09-15T17:05:58.964Z,4.00
2022-09-15T17:08:29.558Z,2.20
2022-09-15T17:10:57.970Z,5.82
2022-09-15T17:13:29.341Z,5.10
2022-09-15T17:15:57.304Z,3.03
2022-09-15T17:18:24.234Z,5.60
2022-09-15T17:20:54.811Z,3.10
2022-09-15T17:23:27.800Z,2.95
2022-09-15T17:25:58.729Z,2.05
2022-09-15T17:28:29.038Z,1.13
2022-09-15T17:31:13.281Z,1.27
2022-09-15T17:33:40.163Z,2.40
2022-09-15T17:36:07.205Z,2.30
2022-09-15T17:38:34.584Z,1.63
2022-09-15T17:41:01.285Z,2.33
2022-09-15T17:43:31.776Z,2.03
2022-09-15T17:45:58.612Z,5.70
2022-09-15T17:48:25.670Z,5.10
2022-09-15T17:50:52.429Z,1.80
2022-09-15T17:53:26.564Z,2.42
2022-09-15T17:55:55.079Z,3.08
2022-09-15T17:58:22.939Z,2.45
2022-09-15T18:00:50.487Z,3.85
2022-09-15T18:03:34.586Z,3.67
2022-09-15T18:06:05.013Z,2.10
2022-09-15T18:08:33.367Z,2.75
2022-09-15T18:11:00.588Z,3.47
2022-09-15T18:13:28.217Z,2.13
2022-09-15T18:15:56.178Z,1.77
2022-09-15T18:18:25.690Z,2.13
2022-09-15T18:20:54.284Z,4.10
2022-09-15T18:23:22.591Z,2.30
2022-09-15T18:25:50.185Z,4.55
2022-09-15T18:28:17.709Z,6.47
2022-09-15T18:30:47.120Z,3.50
2022-09-15T18:33:16.709Z,3.03
2022-09-15T18:35:44.339Z,4.63
2022-09-15T18:38:11.820Z,6.15
2022-09-15T18:40:39.010Z,6.30
2022-09-15T18:43:05.668Z,3.00
2022-09-15T18:45:32.240Z,6.57
2022-09-15T18:47:58.832Z,3.30
2022-09-15T18:50:25.566Z,3.63
2022-09-15T18:52:53.052Z,3.80
2022-09-15T18:55:21.707Z,6.30
2022-09-15T18:57:49.122Z,6.68
2022-09-15T19:00:19.698Z,4.70
2022-09-15T19:02:47.195Z,5.35
2022-09-15T19:05:15.662Z,6.65
2022-09-15T19:07:43.996Z,4.25
2022-09-15T19:10:12.492Z,4.97
2022-09-15T19:12:39.523Z,4.15
2022-09-15T19:15:10.885Z,5.93
2022-09-15T19:17:39.421Z,7.25
2022-09-15T19:20:07.923Z,5.07
2022-09-15T19:22:34.590Z,5.38
2022-09-15T19:25:01.300Z,4.85
2022-09-15T19:27:27.947Z,7.05
2022-09-15T19:29:54.507Z,2.72
2022-09-15T19:32:22.097Z,5.88
2022-09-15T19:34:49.107Z,3.42
2022-09-15T19:37:19.191Z,3.83
2022-09-15T19:39:47.062Z,4.88
2022-09-15T19:44:41.742Z,5.22
2022-09-15T19:47:08.652Z,4.68
2022-09-15T19:49:35.820Z,3.15
2022-09-15T19:52:02.569Z,3.63
2022-09-15T19:54:30.416Z,5.82
2022-09-15T19:56:57.155Z,2.92
2022-09-15T19:59:28.765Z,5.82
2022-09-15T20:01:58.028Z,6.47
2022-09-15T20:04:24.756Z,5.97
2022-09-15T20:06:51.525Z,4.65
2022-09-15T20:09:18.075Z,3.17
2022-09-15T20:11:45.022Z,6.47
2022-09-15T20:14:19.260Z,6.15
2022-09-15T20:16:45.941Z,4.22
2022-09-15T20:19:16.606Z,6.20
2022-09-15T20:21:50.284Z,3.40
2022-09-15T20:24:18.470Z,3.78
2022-09-15T20:26:45.259Z,7.80
2022-09-15T20:29:12.554Z,3.83
2022-09-15T20:31:39.492Z,6.28
2022-09-15T20:34:06.180Z,6.05
2022-09-15T20:36:36.559Z,6.22
2022-09-15T20:39:06.083Z,5.95
2022-09-15T20:41:32.753Z,6.97
2022-09-15T20:44:00.274Z,6.97
2022-09-15T20:46:29.082Z,8.02
2022-09-15T20:48:55.665Z,7.95
2022-09-15T20:51:24.402Z,7.78
2022-09-15T20:53:53.236Z,5.55
2022-09-15T20:56:24.922Z,3.90
2022-09-15T20:58:53.067Z,4.65
2022-09-15T21:01:22.907Z,7.28
2022-09-15T21:03:50.354Z,9.40
2022-09-15T21:06:19.226Z,7.90
2022-09-15T21:08:47.562Z,4.97
2022-09-15T21:11:15.787Z,9.88
2022-09-15T21:13:43.461Z,4.45
2022-09-15T21:16:15.816Z,6.75
2022-09-15T21:18:44.666Z,5.60
2022-09-15T21:21:16.971Z,3.72
2022-09-15T21:23:49.373Z,3.67
2022-09-15T21:27:06.578Z,4.55
2022-09-15T21:32:53.745Z,5.05
2022-09-15T21:35:20.340Z,7.72
2022-09-15T21:37:46.984Z,4.30
2022-09-15T21:40:13.704Z,6.30
2022-09-15T21:42:40.465Z,8.27
2022-09-15T21:45:07.639Z,9.23
2022-09-15T21:47:34.644Z,5.82
2022-09-15T21:50:02.119Z,4.43
2022-09-15T21:52:31.003Z,5.40
2022-09-15T21:54:59.332Z,7.20
2022-09-15T21:57:25.960Z,6.93
2022-09-15T21:59:52.694Z,3.42
2022-09-15T22:02:19.379Z,6.97
2022-09-15T22:04:45.995Z,5.88
2022-09-15T22:07:15.276Z,4.78
2022-09-15T22:09:41.932Z,6.55
2022-09-15T22:15:10.906Z,4.13
2022-09-15T22:17:38.176Z,6.40
2022-09-15T22:20:09.381Z,7.45
2022-09-15T22:22:36.110Z,5.53
2022-09-15T22:25:02.827Z,3.85
2022-09-15T22:27:29.872Z,3.55
2022-09-15T22:29:56.560Z,6.25
2022-09-15T22:32:23.289Z,6.20
2022-09-15T22:34:50.153Z,1.75
2022-09-15T22:37:16.810Z,5.03
2022-09-15T22:39:58.439Z,5.82
2022-09-15T22:42:25.985Z,4.55
2022-09-15T22:44:52.830Z,4.47
2022-09-15T22:47:19.690Z,4.15
2022-09-15T22:49:46.386Z,4.63
2022-09-15T22:52:13.315Z,5.65
2022-09-15T22:54:40.053Z,4.80
2022-09-15T22:57:07.282Z,4.68
2022-09-15T22:59:33.990Z,3.15
2022-09-15T23:02:00.793Z,5.05
2022-09-15T23:04:27.523Z,4.40
2022-09-15T23:06:54.161Z,4.38
2022-09-15T23:09:21.117Z,5.32
2022-09-15T23:11:47.823Z,3.90
2022-09-15T23:14:16.804Z,4.88
2022-09-15T23:16:44.265Z,5.53
2022-09-15T23:19:14.496Z,4.38
2022-09-15T23:21:41.130Z,3.97
2022-09-15T23:24:08.882Z,4.53
2022-09-15T23:26:35.526Z,4.93
2022-09-15T23:29:02.212Z,4.82
2022-09-15T23:31:28.921Z,1.90
2022-09-15T23:33:55.683Z,8.52
2022-09-15T23:36:22.326Z,6.32
2022-09-15T23:38:49.555Z,4.78
2022-09-15T23:41:17.539Z,7.50
2022-09-15T23:43:44.302Z,4.20
2022-09-15T23:46:11.039Z,5.78
2022-09-15T23:48:38.341Z,4.57
2022-09-15T23:51:05.340Z,4.85
2022-09-15T23:53:32.277Z,5.78
2022-09-15T23:55:58.912Z,7.88
2022-09-15T23:58:25.628Z,5.82
